Time;durP1;ratioP1;P1;durP2;ratioP2;P2;SDS_P1;SDS_P2;PMS_P1;PMS_P2;Temp;Humidity;BMP_temperature;BMP_pressure;BME280_temperature;BME280_humidity;BME280_pressure;Samples;Min_cycle;Max_cycle;Signal;HPM_P1;HPM_P2
2021/09/03 00:01:38;;;;;;;14.70;7.18;;;;;;;15.67;51.71;95615.63;4939628;29;20066;-79
2021/09/03 00:04:04;;;;;;;13.23;9.18;;;;;;;15.61;52.35;95618.16;4955055;29;20031;-78
2021/09/03 00:06:29;;;;;;;11.10;6.57;;;;;;;15.58;52.42;95623.09;4938978;29;20102;-79
2021/09/03 00:08:55;;;;;;;10.98;5.00;;;;;;;15.53;51.47;95613.31;4954716;29;20047;-79
2021/09/03 00:11:20;;;;;;;4.20;3.80;;;;;;;15.52;51.70;95606.50;4955530;28;20041;-79
2021/09/03 00:13:46;;;;;;;6.30;5.63;;;;;;;15.50;51.89;95613.81;4968851;28;20027;-78
2021/09/03 00:16:11;;;;;;;7.45;4.72;;;;;;;15.45;52.21;95611.09;4952734;28;20046;-78
2021/09/03 00:18:37;;;;;;;8.65;4.97;;;;;;;15.42;52.07;95606.34;4935988;29;20035;-79
2021/09/03 00:21:02;;;;;;;5.05;4.47;;;;;;;15.39;52.48;95608.69;4935946;29;20039;-79
2021/09/03 00:23:28;;;;;;;16.92;5.72;;;;;;;15.39;53.16;95592.97;4950643;29;20039;-78
2021/09/03 00:25:53;;;;;;;12.57;6.68;;;;;;;15.33;53.71;95597.34;4919989;29;20043;-79
2021/09/03 00:28:19;;;;;;;7.68;5.47;;;;;;;15.30;54.01;95597.84;4935575;29;20550;-78
2021/09/03 00:30:44;;;;;;;9.52;5.22;;;;;;;15.27;54.35;95593.84;4935275;29;20502;-78
2021/09/03 00:33:10;;;;;;;11.15;5.68;;;;;;;15.21;54.92;95592.19;4952761;29;20388;-78
2021/09/03 00:35:35;;;;;;;11.55;6.55;;;;;;;15.12;55.03;95595.47;4951452;29;20035;-78
2021/09/03 00:38:01;;;;;;;9.10;4.20;;;;;;;15.05;53.75;95587.00;4952540;28;20051;-78
2021/09/03 00:40:26;;;;;;;16.27;6.38;;;;;;;15.02;53.99;95586.44;4950042;29;20058;-78
2021/09/03 00:42:51;;;;;;;14.68;7.13;;;;;;;14.96;54.39;95582.13;4952137;28;20442;-78
2021/09/03 00:45:17;;;;;;;15.57;5.25;;;;;;;14.99;53.52;95580.91;4952817;29;20054;-78
2021/09/03 00:47:43;;;;;;;16.55;8.90;;;;;;;15.00;54.45;95596.38;4952309;28;20039;-79
2021/09/03 00:50:09;;;;;;;14.57;7.65;;;;;;;14.97;54.65;95591.63;4953345;29;20042;-79
2021/09/03 00:52:34;;;;;;;16.83;8.05;;;;;;;14.96;55.57;95578.72;4954855;29;20110;-79
2021/09/03 00:55:00;;;;;;;16.60;8.05;;;;;;;14.96;55.43;95581.34;4956170;28;20063;-79
2021/09/03 00:57:26;;;;;;;13.45;8.25;;;;;;;14.92;55.88;95596.75;4955074;29;20086;-79
2021/09/03 00:59:53;;;;;;;23.58;9.85;;;;;;;14.89;55.67;95592.00;4938480;29;20098;-79
2021/09/03 01:02:20;;;;;;;25.15;10.95;;;;;;;14.85;55.56;95587.50;4955047;28;20035;-79
2021/09/03 01:04:46;;;;;;;25.23;10.77;;;;;;;14.85;55.17;95593.53;4954283;29;20031;-79
2021/09/03 01:07:11;;;;;;;22.50;9.95;;;;;;;14.79;55.37;95596.28;4955126;28;20055;-79
2021/09/03 01:09:37;;;;;;;26.00;11.02;;;;;;;14.76;55.78;95587.09;4922228;29;20051;-79
2021/09/03 01:12:02;;;;;;;20.02;10.70;;;;;;;14.70;56.51;95585.44;4956512;29;20031;-79
2021/09/03 01:14:28;;;;;;;27.95;10.68;;;;;;;14.70;56.00;95590.66;4936835;29;20091;-77
2021/09/03 01:16:53;;;;;;;27.00;10.23;;;;;;;14.65;56.38;95582.75;4953729;29;20036;-78
2021/09/03 01:19:19;;;;;;;26.63;11.82;;;;;;;14.64;56.00;95591.59;4953915;29;20507;-78
2021/09/03 01:21:49;;;;;;;24.77;11.65;;;;;;;14.56;55.88;95584.94;4952744;28;20047;-78
2021/09/03 01:24:14;;;;;;;26.73;13.30;;;;;;;14.53;56.02;95576.78;4968649;28;20046;-78
2021/09/03 01:26:40;;;;;;;34.03;12.48;;;;;;;14.52;56.08;95580.44;4936645;29;20039;-78
2021/09/03 01:29:05;;;;;;;21.70;11.10;;;;;;;14.47;56.13;95573.28;4936988;29;20442;-78
2021/09/03 01:31:31;;;;;;;27.73;10.98;;;;;;;14.45;56.64;95566.69;4951960;28;20118;-78
2021/09/03 01:34:22;;;;;;;19.48;8.63;;;;;;;14.40;56.52;95564.75;4957237;28;20042;-78
2021/09/03 01:36:47;;;;;;;25.83;11.32;;;;;;;14.29;56.54;95555.16;4955277;28;20039;-78
2021/09/03 01:39:13;;;;;;;36.17;11.60;;;;;;;14.22;56.60;95550.06;4960131;29;20058;-78
2021/09/03 01:41:38;;;;;;;32.25;11.23;;;;;;;14.16;57.45;95548.41;4961650;29;20070;-78
2021/09/03 01:44:04;;;;;;;23.90;11.18;;;;;;;14.15;57.71;95546.81;4943850;29;20112;-77
2021/09/03 01:46:29;;;;;;;33.10;10.93;;;;;;;14.11;57.48;95545.69;4978331;28;20051;-78
2021/09/03 01:48:55;;;;;;;22.75;9.23;;;;;;;14.10;57.15;95550.13;4958788;29;20047;-78
2021/09/03 01:51:20;;;;;;;28.88;11.68;;;;;;;14.09;58.10;95547.75;4925379;29;20059;-78
2021/09/03 01:53:45;;;;;;;34.03;12.93;;;;;;;14.05;57.52;95557.91;4954494;28;20134;-78
2021/09/03 01:56:11;;;;;;;21.35;8.77;;;;;;;13.96;57.60;95558.50;4953002;28;20042;-78
2021/09/03 01:58:36;;;;;;;22.80;10.57;;;;;;;13.97;57.46;95549.63;4952411;28;20046;-78
2021/09/03 02:01:02;;;;;;;23.25;9.88;;;;;;;13.94;57.92;95550.09;4954708;29;20038;-78
2021/09/03 02:03:27;;;;;;;21.20;10.20;;;;;;;13.88;57.80;95543.19;4954560;28;20040;-78
2021/09/03 02:05:53;;;;;;;27.38;12.65;;;;;;;13.91;57.81;95545.34;4938590;28;20043;-78
2021/09/03 02:08:18;;;;;;;26.83;11.50;;;;;;;13.93;58.27;95540.66;4954423;29;20102;-78
2021/09/03 02:10:44;;;;;;;31.33;10.25;;;;;;;13.91;58.68;95545.34;4955968;29;20046;-78
2021/09/03 02:13:09;;;;;;;28.10;10.90;;;;;;;13.88;58.42;95536.16;4955178;29;20043;-78
2021/09/03 02:15:35;;;;;;;22.85;10.73;;;;;;;13.90;58.58;95535.91;4939343;29;20583;-78
2021/09/03 02:18:00;;;;;;;23.25;10.45;;;;;;;13.89;58.72;95522.06;4957277;29;20031;-79
2021/09/03 02:20:26;;;;;;;35.47;9.90;;;;;;;13.91;58.48;95524.44;4957189;28;20432;-78
2021/09/03 02:22:51;;;;;;;20.90;7.35;;;;;;;13.90;58.42;95526.25;4955169;29;20862;-78
2021/09/03 02:25:17;;;;;;;30.75;10.48;;;;;;;13.90;58.61;95525.47;4955543;29;20035;-78
2021/09/03 02:27:42;;;;;;;43.90;12.75;;;;;;;13.91;58.55;95512.16;4954755;28;20043;-78
2021/09/03 02:30:08;;;;;;;29.75;11.23;;;;;;;13.89;58.52;95510.81;4936906;29;20511;-78
2021/09/03 02:32:34;;;;;;;26.45;10.73;;;;;;;13.88;58.82;95510.00;4954657;28;20093;-78
2021/09/03 02:34:59;;;;;;;32.72;10.43;;;;;;;13.81;58.78;95510.13;4969323;28;20515;-78
2021/09/03 02:37:25;;;;;;;28.90;9.15;;;;;;;13.78;58.77;95510.59;4953955;28;20035;-78
2021/09/03 02:39:50;;;;;;;35.83;8.98;;;;;;;13.74;59.13;95508.69;4937279;29;20035;-78
2021/09/03 02:42:16;;;;;;;23.08;8.32;;;;;;;13.74;59.47;95513.94;4936817;29;20039;-78
2021/09/03 02:44:41;;;;;;;19.08;7.30;;;;;;;13.68;58.74;95501.81;4954744;29;20051;-78
2021/09/03 02:47:08;;;;;;;31.70;7.85;;;;;;;13.65;58.79;95503.03;4957780;28;20035;-79
2021/09/03 02:49:34;;;;;;;14.52;7.88;;;;;;;13.56;59.36;95507.06;4940796;29;20151;-78
2021/09/03 02:51:59;;;;;;;30.45;9.70;;;;;;;13.51;59.27;95512.22;4954657;28;20495;-78
2021/09/03 02:54:25;;;;;;;42.40;11.05;;;;;;;13.51;59.30;95520.06;4957967;29;20530;-79
2021/09/03 02:56:51;;;;;;;24.23;11.07;;;;;;;13.47;59.32;95518.91;4957648;28;20031;-78
2021/09/03 02:59:16;;;;;;;33.33;9.65;;;;;;;13.47;59.22;95514.47;4955178;28;20530;-78
2021/09/03 03:01:41;;;;;;;24.85;11.50;;;;;;;13.43;59.68;95509.94;4957361;28;20129;-78
2021/09/03 03:04:07;;;;;;;30.95;12.52;;;;;;;13.35;59.99;95510.34;4954801;29;20035;-78
2021/09/03 03:06:32;;;;;;;34.05;12.23;;;;;;;13.37;60.12;95513.50;4954589;28;20050;-78
2021/09/03 03:08:58;;;;;;;35.78;11.82;;;;;;;13.39;59.59;95517.47;4953512;29;20039;-78
2021/09/03 03:11:23;;;;;;;31.85;11.52;;;;;;;13.39;60.40;95520.06;4952439;28;20056;-78
2021/09/03 03:13:56;;;;;;;24.15;11.38;;;;;;;13.33;60.18;95522.81;4954465;29;20047;-78
2021/09/03 03:16:29;;;;;;;31.83;12.82;;;;;;;13.35;59.65;95526.81;4954768;28;20043;-78
2021/09/03 03:18:55;;;;;;;30.88;13.00;;;;;;;13.32;59.97;95521.22;4937982;28;20047;-78
2021/09/03 03:21:20;;;;;;;43.80;12.90;;;;;;;13.26;60.24;95522.94;4954304;28;20038;-78
2021/09/03 03:23:45;;;;;;;44.38;13.70;;;;;;;13.27;60.31;95528.97;4954546;29;20059;-78
2021/09/03 03:26:11;;;;;;;36.78;11.60;;;;;;;13.29;60.15;95521.69;4955635;28;20039;-78
2021/09/03 03:28:36;;;;;;;28.65;11.98;;;;;;;13.28;60.32;95530.53;4946873;29;20027;-78
2021/09/03 03:31:02;;;;;;;42.78;14.38;;;;;;;13.23;60.30;95528.63;4962767;29;20496;-78
2021/09/03 03:33:27;;;;;;;49.95;15.50;;;;;;;13.23;59.77;95533.06;4959082;29;20039;-78
2021/09/03 03:35:53;;;;;;;46.30;15.93;;;;;;;13.21;59.82;95522.84;4955532;28;20062;-78
2021/09/03 03:38:18;;;;;;;39.35;16.70;;;;;;;13.15;60.01;95521.09;4937036;29;20122;-78
2021/09/03 03:40:43;;;;;;;44.05;16.15;;;;;;;13.11;60.57;95526.00;4952689;28;20039;-78
2021/09/03 03:43:09;;;;;;;40.97;14.57;;;;;;;13.09;60.17;95532.47;4937908;29;20043;-78
2021/09/03 03:45:34;;;;;;;46.33;12.38;;;;;;;13.10;60.02;95542.69;4937132;29;20038;-78
2021/09/03 03:48:00;;;;;;;34.17;11.63;;;;;;;13.10;60.34;95549.75;4966491;28;20045;-77
2021/09/03 03:50:26;;;;;;;39.10;10.23;;;;;;;13.03;60.92;95554.31;4957534;29;20042;-78
2021/09/03 03:52:51;;;;;;;41.88;9.70;;;;;;;13.03;61.19;95554.31;4957494;29;20046;-77
2021/09/03 03:55:17;;;;;;;30.63;10.68;;;;;;;13.00;60.53;95555.53;4964089;28;20042;-79
2021/09/03 03:57:42;;;;;;;33.55;10.32;;;;;;;13.05;60.39;95550.44;4956076;29;20411;-79
2021/09/03 04:00:08;;;;;;;40.47;12.38;;;;;;;13.03;60.32;95552.47;4955836;29;20038;-79
2021/09/03 04:02:34;;;;;;;44.95;11.27;;;;;;;13.02;60.71;95563.16;4952301;28;20499;-78
2021/09/03 04:04:59;;;;;;;49.97;11.40;;;;;;;13.00;61.19;95563.34;4953016;29;20091;-78
2021/09/03 04:07:25;;;;;;;56.28;9.88;;;;;;;13.09;60.42;95564.63;4952952;28;20027;-78
2021/09/03 04:09:50;;;;;;;32.25;10.07;;;;;;;13.28;60.50;95572.34;4952612;29;20031;-78
2021/09/03 04:12:16;;;;;;;30.23;9.68;;;;;;;13.48;59.99;95573.53;4954683;29;20113;-78
2021/09/03 04:14:41;;;;;;;22.67;7.90;;;;;;;13.61;59.18;95576.94;4954304;29;20529;-78
2021/09/03 04:17:07;;;;;;;12.00;6.32;;;;;;;13.70;58.87;95576.34;4955425;28;20039;-78
2021/09/03 04:19:32;;;;;;;39.67;10.50;;;;;;;13.81;58.67;95572.88;4955935;29;20427;-78
2021/09/03 04:22:01;;;;;;;64.82;13.50;;;;;;;13.87;58.88;95570.38;4955399;28;20043;-78
2021/09/03 04:24:26;;;;;;;41.70;14.07;;;;;;;13.95;58.56;95572.59;4939160;29;20525;-79
2021/09/03 04:26:51;;;;;;;55.08;19.08;;;;;;;14.06;58.35;95569.16;4953797;28;20504;-79
2021/09/03 04:29:17;;;;;;;52.15;20.63;;;;;;;14.68;56.52;95571.78;4955073;29;20066;-78
2021/09/03 04:31:42;;;;;;;22.15;10.88;;;;;;;15.86;52.82;95567.06;4957198;28;20085;-79
2021/09/03 04:34:08;;;;;;;21.17;7.82;;;;;;;17.07;48.90;95561.28;4956476;29;20322;-79
2021/09/03 04:36:33;;;;;;;10.95;6.07;;;;;;;18.24;45.52;95556.50;4924060;29;20089;-78
2021/09/03 04:38:59;;;;;;;14.18;6.10;;;;;;;19.47;42.98;95560.63;4955845;29;20058;-79
2021/09/03 04:41:24;;;;;;;37.10;9.02;;;;;;;20.65;40.57;95556.31;4955499;29;20039;-79
2021/09/03 04:43:51;;;;;;;34.88;11.23;;;;;;;21.87;38.11;95552.44;4939807;29;20131;-79
2021/09/03 04:46:17;;;;;;;32.78;9.05;;;;;;;22.96;35.14;95552.19;4956361;29;20050;-79
2021/09/03 04:48:42;;;;;;;60.83;17.23;;;;;;;24.18;33.22;95549.00;4938605;29;20059;-79
2021/09/03 04:51:07;;;;;;;31.90;8.75;;;;;;;25.31;31.27;95547.91;4937917;29;20038;-79
2021/09/03 04:53:40;;;;;;;28.38;8.63;;;;;;;26.49;29.44;95544.28;4956023;28;20337;-79
2021/09/03 04:56:05;;;;;;;37.42;10.07;;;;;;;27.54;27.96;95550.19;4956276;28;20051;-79
2021/09/03 04:58:31;;;;;;;33.28;8.60;;;;;;;28.49;26.29;95552.31;4955380;28;20043;-79
2021/09/03 05:00:56;;;;;;;61.70;11.20;;;;;;;29.46;25.29;95557.19;4955902;28;20059;-80
2021/09/03 05:03:25;;;;;;;36.78;8.60;;;;;;;30.23;23.94;95547.31;4956205;29;20039;-79
2021/09/03 05:05:50;;;;;;;14.73;5.28;;;;;;;30.83;22.09;95547.47;4955242;28;20035;-80
2021/09/03 05:08:15;;;;;;;13.95;5.03;;;;;;;31.38;21.75;95543.91;4956320;28;20035;-79
2021/09/03 05:10:41;;;;;;;15.65;5.18;;;;;;;31.74;21.21;95542.91;4955288;28;20043;-79
2021/09/03 05:13:06;;;;;;;9.77;4.22;;;;;;;32.41;20.31;95542.84;4938585;29;20031;-79
2021/09/03 05:15:37;;;;;;;12.52;4.82;;;;;;;32.92;19.65;95542.69;4938538;29;20447;-79
2021/09/03 05:18:03;;;;;;;15.93;4.43;;;;;;;33.59;19.11;95549.25;4954029;28;20047;-79
2021/09/03 05:20:28;;;;;;;6.45;4.40;;;;;;;34.06;18.20;95549.97;4955383;29;20031;-80
2021/09/03 05:22:54;;;;;;;10.68;4.00;;;;;;;34.71;17.67;95544.25;4938163;29;20411;-79
2021/09/03 05:25:19;;;;;;;17.48;6.05;;;;;;;35.02;17.37;95549.25;4953812;29;20059;-79
2021/09/03 05:27:45;;;;;;;15.32;4.72;;;;;;;35.45;17.10;95538.84;4955702;28;20035;-80
2021/09/03 05:30:16;;;;;;;14.93;4.35;;;;;;;35.78;17.02;95544.13;4956405;29;20031;-80
2021/09/03 05:32:42;;;;;;;;;;;;;;;36.71;15.71;95546.59;4956449;29;20054;-80
2021/09/03 05:35:08;;;;;;;5.97;3.00;;;;;;;37.33;14.84;95549.88;4959629;28;19918;-80
2021/09/03 05:37:39;;;;;;;9.30;3.53;;;;;;;37.74;14.46;95552.22;4962236;28;20053;-80
2021/09/03 05:40:06;;;;;;;12.40;3.70;;;;;;;37.46;15.24;95553.78;4960094;29;20042;-80
2021/09/03 05:42:31;;;;;;;10.65;3.72;;;;;;;37.78;14.47;95553.03;4957904;29;20046;-80
2021/09/03 05:44:56;;;;;;;13.35;4.20;;;;;;;37.97;14.27;95558.03;4959624;28;20530;-80
2021/09/03 05:47:22;;;;;;;14.48;4.22;;;;;;;37.77;14.62;95556.91;4958829;29;20035;-80
2021/09/03 05:49:47;;;;;;;13.25;4.68;;;;;;;37.28;15.27;95546.78;4941867;29;20035;-80
2021/09/03 05:52:13;;;;;;;13.32;3.90;;;;;;;36.31;15.84;95553.78;4959095;28;20035;-80
2021/09/03 05:54:38;;;;;;;8.30;3.58;;;;;;;35.52;16.69;95554.38;4960367;28;20043;-80
2021/09/03 05:57:05;;;;;;;11.88;4.15;;;;;;;34.85;17.11;95547.13;4960140;28;20046;-80
2021/09/03 05:59:31;;;;;;;12.57;4.03;;;;;;;34.06;18.32;95555.38;4958410;29;20035;-80
2021/09/03 06:01:56;;;;;;;14.38;6.40;;;;;;;33.73;18.67;95556.78;4958245;29;20032;-80
2021/09/03 06:04:22;;;;;;;23.80;4.68;;;;;;;33.63;19.45;95552.00;4959170;29;20483;-80
2021/09/03 06:06:47;;;;;;;11.13;4.53;;;;;;;33.33;19.06;95555.38;4942857;29;20035;-80
2021/09/03 06:09:13;;;;;;;13.77;5.15;;;;;;;33.07;19.65;95557.97;4926565;29;20035;-80
2021/09/03 06:11:38;;;;;;;12.45;4.55;;;;;;;32.75;19.26;95560.03;4925672;29;20126;-80
2021/09/03 06:14:03;;;;;;;18.13;4.97;;;;;;;32.31;20.20;95554.16;4958760;29;20062;-80
2021/09/03 06:16:29;;;;;;;17.50;5.53;;;;;;;31.88;19.96;95558.56;4959597;28;20031;-80
2021/09/03 06:18:54;;;;;;;9.05;5.07;;;;;;;31.52;20.80;95556.94;4960313;28;20546;-80
2021/09/03 06:21:20;;;;;;;16.85;4.75;;;;;;;31.21;21.13;95546.94;4959927;28;20027;-79
2021/09/03 06:23:45;;;;;;;8.55;5.88;;;;;;;30.92;21.46;95548.88;4942294;28;20035;-80
2021/09/03 06:26:11;;;;;;;17.90;5.82;;;;;;;30.53;22.48;95549.69;4958249;28;20027;-80
2021/09/03 06:28:36;;;;;;;15.90;6.07;;;;;;;30.28;22.30;95552.47;4943156;29;20036;-80
2021/09/03 06:31:02;;;;;;;14.45;5.50;;;;;;;30.05;22.62;95552.16;4960145;28;20078;-79
2021/09/03 06:33:27;;;;;;;21.02;5.22;;;;;;;29.85;23.53;95559.19;4942757;29;20031;-80
2021/09/03 06:35:54;;;;;;;8.48;4.80;;;;;;;29.74;23.49;95547.34;4959297;29;20031;-81
2021/09/03 06:38:19;;;;;;;12.38;4.57;;;;;;;29.54;23.63;95553.63;4926018;29;20094;-79
2021/09/03 06:40:45;;;;;;;4.90;3.92;;;;;;;29.49;24.24;95551.16;4957958;28;20035;-80
2021/09/03 06:43:10;;;;;;;13.65;5.50;;;;;;;29.46;23.86;95551.84;4940453;29;20046;-82
2021/09/03 06:45:36;;;;;;;8.15;4.68;;;;;;;29.29;24.14;95556.25;4940767;29;20058;-79
2021/09/03 06:48:01;;;;;;;7.28;4.28;;;;;;;29.05;24.27;95558.09;4956124;29;20039;-80
2021/09/03 06:50:27;;;;;;;9.45;3.92;;;;;;;28.70;24.77;95551.16;4956256;29;20027;-79
2021/09/03 06:52:52;;;;;;;7.57;4.50;;;;;;;28.38;24.95;95550.00;4955836;28;20050;-80
2021/09/03 06:55:18;;;;;;;14.60;5.07;;;;;;;28.28;25.48;95554.97;4956164;29;20050;-80
2021/09/03 06:57:43;;;;;;;11.10;4.90;;;;;;;28.20;25.81;95553.13;4940779;29;20496;-80
2021/09/03 07:00:09;;;;;;;18.70;5.25;;;;;;;27.86;25.81;95562.94;4956180;29;20042;-81
2021/09/03 07:02:35;;;;;;;11.77;5.00;;;;;;;27.31;26.62;95555.75;4958711;28;20431;-80
2021/09/03 07:05:00;;;;;;;19.23;5.03;;;;;;;27.35;27.04;95553.25;4959271;29;20041;-82
2021/09/03 07:07:26;;;;;;;17.52;4.82;;;;;;;27.39;26.82;95562.97;4942313;29;20031;-80
2021/09/03 07:09:52;;;;;;;9.23;5.03;;;;;;;27.39;26.64;95557.63;4959387;28;20078;-80
2021/09/03 07:12:18;;;;;;;6.82;4.45;;;;;;;27.37;26.48;95551.81;4980409;28;20042;-83
2021/09/03 07:14:44;;;;;;;9.38;4.78;;;;;;;27.30;26.57;95551.50;4951972;29;20027;-83
2021/09/03 07:17:10;;;;;;;17.77;4.97;;;;;;;27.19;27.04;95543.09;4945782;28;20032;-80
2021/09/03 07:19:35;;;;;;;8.45;4.57;;;;;;;27.20;26.81;95555.34;4960792;29;20063;-80
2021/09/03 07:22:01;;;;;;;12.93;4.70;;;;;;;27.04;26.86;95554.28;4959681;29;20460;-87
2021/09/03 07:24:27;;;;;;;17.40;5.05;;;;;;;26.89;26.81;95552.88;4945501;28;20090;-86
2021/09/03 07:26:53;;;;;;;9.93;4.25;;;;;;;26.90;27.05;95548.31;4929645;29;20035;-87
2021/09/03 07:29:18;;;;;;;6.15;4.40;;;;;;;26.83;27.56;95548.78;4945712;29;20492;-87
2021/09/03 07:31:44;;;;;;;11.23;4.38;;;;;;;26.65;27.58;95555.25;4961103;28;20589;-87
2021/09/03 07:34:09;;;;;;;12.85;4.50;;;;;;;26.66;28.20;95548.81;4944497;29;20125;-86
2021/09/03 07:36:35;;;;;;;15.43;5.07;;;;;;;26.77;28.19;95555.38;4945349;29;20059;-87
2021/09/03 07:39:01;;;;;;;10.38;4.63;;;;;;;26.83;28.01;95561.34;4945060;29;20074;-87
2021/09/03 07:41:26;;;;;;;8.20;4.22;;;;;;;26.83;27.61;95559.44;4960612;28;20046;-86
2021/09/03 07:43:52;;;;;;;6.60;3.88;;;;;;;26.79;27.27;95563.88;4945813;28;20098;-87
2021/09/03 07:46:17;;;;;;;6.53;4.20;;;;;;;26.83;27.76;95559.44;4959903;28;20531;-86
2021/09/03 07:48:43;;;;;;;9.95;4.03;;;;;;;26.92;28.14;95562.13;4962874;28;20039;-86
2021/09/03 07:51:08;;;;;;;7.20;4.80;;;;;;;26.97;27.78;95559.28;4944970;29;20094;-87
2021/09/03 07:53:34;;;;;;;18.70;4.43;;;;;;;26.94;28.18;95559.91;4944999;29;20050;-86
2021/09/03 07:56:00;;;;;;;4.35;3.92;;;;;;;26.85;27.62;95551.94;4944943;28;20027;-87
2021/09/03 07:58:25;;;;;;;13.25;5.00;;;;;;;26.73;27.18;95554.47;4961556;28;20030;-86
2021/09/03 08:00:51;;;;;;;10.48;4.10;;;;;;;26.56;27.84;95546.47;4963450;28;20027;-83
2021/09/03 08:03:17;;;;;;;9.52;4.40;;;;;;;26.41;27.63;95541.63;4965743;29;20182;-86
2021/09/03 08:05:42;;;;;;;9.65;3.65;;;;;;;26.31;27.68;95534.69;4948439;29;20069;-84
2021/09/03 08:08:08;;;;;;;5.65;3.83;;;;;;;26.08;27.65;95534.06;4934204;29;20031;-85
2021/09/03 08:10:34;;;;;;;7.47;4.43;;;;;;;25.53;28.31;95539.84;4938648;29;20419;-80
2021/09/03 08:13:03;;;;;;;9.88;4.07;;;;;;;25.29;29.14;95518.16;4969788;28;20039;-80
2021/09/03 08:15:29;;;;;;;6.32;3.72;;;;;;;25.17;29.32;95523.28;4953704;29;20042;-80
2021/09/03 08:17:54;;;;;;;5.28;3.88;;;;;;;25.24;29.22;95510.31;4954006;29;20411;-80
2021/09/03 08:20:20;;;;;;;8.48;3.90;;;;;;;25.28;29.38;95505.94;4953968;29;20031;-81
2021/09/03 08:22:48;;;;;;;7.78;4.32;;;;;;;25.28;30.02;95513.94;4961835;28;20034;-80
2021/09/03 08:25:13;;;;;;;6.22;4.05;;;;;;;25.18;29.81;95512.31;4960100;29;20039;-80
2021/09/03 08:27:39;;;;;;;10.75;3.80;;;;;;;25.08;29.92;95513.38;4943043;29;20070;-80
2021/09/03 08:30:05;;;;;;;5.15;4.13;;;;;;;24.93;29.83;95515.63;4961770;29;20035;-80
2021/09/03 08:32:31;;;;;;;6.30;3.92;;;;;;;24.87;30.56;95506.19;4943918;29;20421;-80
2021/09/03 08:34:57;;;;;;;10.32;4.50;;;;;;;24.89;30.58;95499.47;4942197;29;20027;-80
2021/09/03 08:37:22;;;;;;;6.57;4.00;;;;;;;24.86;30.51;95505.41;4960820;29;20038;-80
2021/09/03 08:39:49;;;;;;;6.65;4.07;;;;;;;24.80;30.61;95496.00;4943824;29;20035;-80
2021/09/03 08:42:14;;;;;;;8.73;4.57;;;;;;;24.73;29.70;95490.31;4952219;28;20527;-81
2021/09/03 08:44:40;;;;;;;10.57;4.18;;;;;;;24.65;29.94;95488.41;4937095;29;20035;-80
2021/09/03 08:47:06;;;;;;;8.00;4.63;;;;;;;24.57;30.17;95489.13;4937322;29;20042;-80
2021/09/03 08:49:32;;;;;;;9.18;4.68;;;;;;;24.54;30.12;95493.94;4936834;29;20038;-80
2021/09/03 08:51:57;;;;;;;14.30;4.50;;;;;;;24.62;30.22;95499.66;4975868;23;20051;-80
2021/09/03 08:54:23;;;;;;;8.35;3.97;;;;;;;24.56;30.25;95488.31;4945425;29;20042;-81
2021/09/03 08:56:48;;;;;;;8.93;4.50;;;;;;;24.51;29.59;95483.16;4951111;29;20043;-80
2021/09/03 08:59:14;;;;;;;11.60;4.10;;;;;;;24.42;31.01;95480.44;4929433;29;20122;-80
2021/09/03 09:01:43;;;;;;;6.40;4.18;;;;;;;24.43;29.83;95475.91;4936148;29;20035;-81
2021/09/03 09:04:14;;;;;;;9.77;3.95;;;;;;;24.40;30.31;95479.16;4920640;29;20588;-81
2021/09/03 09:06:59;;;;;;;5.68;4.05;;;;;;;24.44;30.95;95472.94;4954352;29;20058;-82
2021/09/03 09:09:30;;;;;;;9.15;4.10;;;;;;;24.45;30.64;95473.72;4954950;28;20039;-82
2021/09/03 09:12:01;;;;;;;8.32;3.70;;;;;;;24.37;29.54;95482.41;4955889;29;20080;-82
2021/09/03 09:14:27;;;;;;;13.02;4.05;;;;;;;24.26;29.78;95481.88;4923065;29;20031;-83
2021/09/03 09:16:52;;;;;;;4.10;3.65;;;;;;;24.24;28.91;95473.38;4914573;29;20456;-80
2021/09/03 09:19:18;;;;;;;8.75;3.60;;;;;;;24.19;29.15;95476.16;4936476;29;20050;-79
2021/09/03 09:21:43;;;;;;;4.20;3.38;;;;;;;24.17;29.36;95478.34;4928009;29;20027;-79
2021/09/03 09:24:13;;;;;;;9.77;3.80;;;;;;;24.22;30.36;95464.94;4936037;29;20039;-79
2021/09/03 09:26:56;;;;;;;6.00;3.67;;;;;;;24.13;29.82;95470.19;4970701;23;20075;-79
2021/09/03 09:29:22;;;;;;;7.25;4.35;;;;;;;24.09;30.73;95460.47;4963563;28;20056;-79
2021/09/03 09:31:53;;;;;;;8.30;4.07;;;;;;;24.12;30.86;95454.56;4957926;28;20482;-79
2021/09/03 09:34:28;;;;;;;6.75;3.90;;;;;;;24.08;30.55;95461.53;4936678;29;20047;-79
2021/09/03 09:36:54;;;;;;;10.43;3.60;;;;;;;24.06;30.53;95464.50;4967887;28;20495;-79
2021/09/03 09:39:20;;;;;;;7.43;4.03;;;;;;;23.42;30.83;95453.13;4936262;29;20040;-79
2021/09/03 09:41:46;;;;;;;10.52;4.15;;;;;;;23.25;31.97;95464.34;4935811;29;20118;-79
2021/09/03 09:44:15;;;;;;;10.32;3.90;;;;;;;23.38;31.35;95449.50;4952983;28;20090;-80
2021/09/03 09:46:40;;;;;;;9.45;4.55;;;;;;;23.37;31.21;95447.91;4935800;29;20094;-80
2021/09/03 09:49:10;;;;;;;6.57;3.92;;;;;;;23.45;32.15;95449.09;4953248;29;20031;-79
2021/09/03 09:51:43;;;;;;;5.75;3.95;;;;;;;23.60;31.43;95449.59;4951379;29;20051;-79
2021/09/03 09:54:16;;;;;;;8.10;3.88;;;;;;;23.72;30.71;95445.63;4967980;28;20035;-79
2021/09/03 09:56:42;;;;;;;8.05;3.95;;;;;;;23.78;30.94;95444.44;4951206;28;20039;-80
2021/09/03 09:59:09;;;;;;;7.85;4.30;;;;;;;23.67;30.88;95443.88;4951997;29;20514;-79
2021/09/03 10:01:35;;;;;;;6.32;4.22;;;;;;;23.63;30.84;95437.59;4935739;29;20035;-79
2021/09/03 10:04:06;;;;;;;4.40;4.00;;;;;;;23.54;31.35;95440.13;4951341;29;20023;-80
2021/09/03 10:06:32;;;;;;;6.43;3.80;;;;;;;23.54;32.06;95436.69;4950079;29;20027;-79
2021/09/03 10:08:58;;;;;;;4.28;3.50;;;;;;;23.65;31.93;95430.91;4935859;28;20058;-78
2021/09/03 10:11:23;;;;;;;9.48;3.95;;;;;;;23.81;31.93;95428.69;4951970;28;20043;-78
2021/09/03 10:13:49;;;;;;;10.13;3.78;;;;;;;23.99;32.23;95423.50;4953879;29;20500;-81
2021/09/03 10:16:15;;;;;;;4.18;3.78;;;;;;;23.82;30.69;95430.25;4921079;29;20113;-79
2021/09/03 10:18:42;;;;;;;4.72;3.08;;;;;;;23.89;31.13;95409.38;4951751;29;20488;-78
2021/09/03 10:21:08;;;;;;;4.82;3.63;;;;;;;24.07;32.15;95409.50;4936343;29;20126;-81
2021/09/03 10:23:49;;;;;;;10.10;3.63;;;;;;;24.10;30.74;95415.00;4958020;29;20114;-79
2021/09/03 10:26:16;;;;;;;5.03;3.53;;;;;;;23.92;31.13;95408.78;4976826;28;20566;-80
2021/09/03 10:28:41;;;;;;;9.05;3.63;;;;;;;23.68;31.18;95413.56;4947133;29;20050;-80
2021/09/03 10:31:07;;;;;;;4.82;4.13;;;;;;;23.37;31.57;95413.41;4946602;29;20027;-82
2021/09/03 10:33:34;;;;;;;6.60;3.90;;;;;;;23.05;32.54;95401.84;4965686;29;20043;-81
2021/09/03 10:35:59;;;;;;;5.63;3.85;;;;;;;23.02;32.17;95406.97;4940902;29;20515;-77
2021/09/03 10:38:33;;;;;;;8.13;4.10;;;;;;;22.93;32.90;95398.13;4953855;28;20662;-74
2021/09/03 10:40:59;;;;;;;8.35;4.57;;;;;;;22.94;32.82;95405.00;4953690;28;20058;-80
2021/09/03 10:43:58;;;;;;;11.43;4.13;;;;;;;23.17;32.51;95400.56;4956050;28;20118;-77
2021/09/03 10:46:23;;;;;;;5.85;3.53;;;;;;;23.44;32.91;95391.78;4933527;28;20050;-77
2021/09/03 10:48:50;;;;;;;13.10;3.92;;;;;;;23.63;32.13;95395.13;4941030;29;20031;-81
2021/09/03 10:51:32;;;;;;;9.88;4.15;;;;;;;23.82;31.43;95397.59;4943857;29;20038;-84
2021/09/03 10:53:57;;;;;;;5.38;3.42;;;;;;;23.84;30.61;95395.44;4961861;29;20028;-83
2021/09/03 10:56:24;;;;;;;6.78;3.45;;;;;;;23.67;31.41;95393.41;4967887;28;20039;-82
2021/09/03 10:58:54;;;;;;;5.15;3.75;;;;;;;23.82;30.94;95385.09;4955106;29;20043;-82
2021/09/03 11:01:25;;;;;;;4.22;3.70;;;;;;;24.11;31.56;95383.91;4965754;29;20028;-83
2021/09/03 11:04:05;;;;;;;9.27;4.30;;;;;;;24.11;30.67;95375.94;4975153;28;20047;-84
2021/09/03 11:06:40;;;;;;;9.52;3.53;;;;;;;24.10;30.79;95371.72;4960000;29;20042;-84
2021/09/03 11:09:25;;;;;;;4.40;3.97;;;;;;;23.77;31.02;95379.94;4965046;29;20122;-83
2021/09/03 11:11:56;;;;;;;5.30;3.30;;;;;;;23.44;31.32;95375.88;4948712;29;20750;-82
2021/09/03 11:14:31;;;;;;;7.78;3.13;;;;;;;23.25;31.58;95374.13;4947558;29;20389;-83
2021/09/03 11:16:59;;;;;;;4.25;3.80;;;;;;;22.80;32.17;95381.13;4999351;23;20042;-84
2021/09/03 11:19:37;;;;;;;10.15;3.72;;;;;;;22.54;32.53;95374.72;4974640;28;20043;-82
2021/09/03 11:22:03;;;;;;;7.70;3.55;;;;;;;22.79;32.76;95376.13;4970895;28;20059;-82
2021/09/03 11:24:30;;;;;;;8.70;3.67;;;;;;;22.94;32.13;95378.47;4957849;29;20035;-82